Map

Track Data

SID SEASON NUMBER BASIN SUBBASIN NAME ISO_TIME NATURE LAT LON WMO_WIND WMO_PRES WMO_AGENCY TRACK_TYPE DIST2LAND LANDFALL IFLAG USA_AGENCY USA_ATCF_ID USA_LAT USA_LON USA_RECORD USA_STATUS USA_WIND USA_PRES USA_SSHS USA_R34_NE USA_R34_SE USA_R34_SW USA_R34_NW USA_R50_NE USA_R50_SE USA_R50_SW USA_R50_NW USA_R64_NE USA_R64_SE USA_R64_SW USA_R64_NW USA_POCI USA_ROCI USA_RMW USA_EYE TOKYO_LAT TOKYO_LON TOKYO_GRADE TOKYO_WIND TOKYO_PRES TOKYO_R50_DIR TOKYO_R50_LONG TOKYO_R50_SHORT TOKYO_R30_DIR TOKYO_R30_LONG TOKYO_R30_SHORT TOKYO_LAND CMA_LAT CMA_LON CMA_CAT CMA_WIND CMA_PRES HKO_LAT HKO_LON HKO_CAT HKO_WIND HKO_PRES NEWDELHI_LAT NEWDELHI_LON NEWDELHI_GRADE NEWDELHI_WIND NEWDELHI_PRES NEWDELHI_CI NEWDELHI_DP NEWDELHI_POCI REUNION_LAT REUNION_LON REUNION_TYPE REUNION_WIND REUNION_PRES REUNION_TNUM REUNION_CI REUNION_RMW REUNION_R34_NE REUNION_R34_SE REUNION_R34_SW REUNION_R34_NW REUNION_R50_NE REUNION_R50_SE REUNION_R50_SW REUNION_R50_NW REUNION_R64_NE REUNION_R64_SE REUNION_R64_SW REUNION_R64_NW BOM_LAT BOM_LON BOM_TYPE BOM_WIND BOM_PRES BOM_TNUM BOM_CI BOM_RMW BOM_R34_NE BOM_R34_SE BOM_R34_SW BOM_R34_NW BOM_R50_NE BOM_R50_SE BOM_R50_SW BOM_R50_NW BOM_R64_NE BOM_R64_SE BOM_R64_SW BOM_R64_NW BOM_ROCI BOM_POCI BOM_EYE BOM_POS_METHOD BOM_PRES_METHOD NADI_LAT NADI_LON NADI_CAT NADI_WIND NADI_PRES WELLINGTON_LAT WELLINGTON_LON WELLINGTON_WIND WELLINGTON_PRES DS824_LAT DS824_LON DS824_STAGE DS824_WIND DS824_PRES TD9636_LAT TD9636_LON TD9636_STAGE TD9636_WIND TD9636_PRES TD9635_LAT TD9635_LON TD9635_WIND TD9635_PRES TD9635_ROCI NEUMANN_LAT NEUMANN_LON NEUMANN_CLASS NEUMANN_WIND NEUMANN_PRES MLC_LAT MLC_LON MLC_CLASS MLC_WIND MLC_PRES USA_GUST BOM_GUST BOM_GUST_PER REUNION_GUST REUNION_GUST_PER USA_SEAHGT USA_SEARAD_NE USA_SEARAD_SE USA_SEARAD_SW USA_SEARAD_NW STORM_SPEED STORM_DIR
1950143N08093 1950 25 NI BB NOT_NAMED 1950-05-22 18:00:00 TS 7.70000 93.3000 main 315 315 O________O____ jtwc_io IO021950 7.70000 93.3000 -1 7.70000 93.3000 TC 3 338
1950143N08093 1950 25 NI BB NOT_NAMED 1950-05-22 21:00:00 TS 7.84250 93.2500 main 323 323 P________P____ IO021950 7.84250 93.2500 -1 7.84250 93.2500 TC 3 343
1950143N08093 1950 25 NI BB NOT_NAMED 1950-05-23 00:00:00 TS 8.00000 93.2000 main 348 348 O________O____ jtwc_io IO021950 8.00000 93.2000 -1 8.00000 93.2000 TC 25 4 343
1950143N08093 1950 25 NI BB NOT_NAMED 1950-05-23 03:00:00 TS 8.18667 93.1444 main 372 372 P________PO___ IO021950 8.18500 93.1500 -1 8.18500 93.1500 TC 25 8.20000 93.1000 1 4 345
1950143N08093 1950 25 NI BB NOT_NAMED 1950-05-23 06:00:00 TS 8.40845 93.0916 main 390 390 O________OP___ jtwc_io IO021950 8.40000 93.1000 -1 8.40000 93.1000 TC 25 8.44223 93.0578 1 5 348
1950143N08093 1950 25 NI BB NOT_NAMED 1950-05-23 09:00:00 TS 8.65479 93.0452 main 423 423 P________PP___ IO021950 8.64250 93.0575 -1 8.64250 93.0575 TC 25 8.68756 93.0125 1 5 348
1950143N08093 1950 25 NI BB NOT_NAMED 1950-05-23 12:00:00 TS 8.91304 92.9870 main 442 442 O________OP___ jtwc_io IO021950 8.90000 93.0000 -1 8.90000 93.0000 TC 25 8.93912 92.9610 1 5 345
1950143N08093 1950 25 NI BB NOT_NAMED 1950-05-23 15:00:00 TS 9.16667 92.9050 main 476 476 P________PO___ IO021950 9.15000 92.9075 -1 9.15000 92.9075 TC 25 9.20000 92.9000 1 5 341
1950143N08093 1950 25 NI BB NOT_NAMED 1950-05-23 18:00:00 TS 9.42341 92.8083 main 501 501 O________OP___ jtwc_io IO021950 9.40000 92.8000 -1 9.40000 92.8000 TC 25 9.47022 92.8250 1 5 340
1950143N08093 1950 25 NI BB NOT_NAMED 1950-05-23 21:00:00 TS 9.67910 92.7183 main 535 535 P________PP___ IO021950 9.64998 92.7150 -1 9.64998 92.7150 TC 25 9.73734 92.7250 1 6 338
1950143N08093 1950 25 NI BB NOT_NAMED 1950-05-24 00:00:00 TS 9.92860 92.5958 main 560 560 O________OP___ jtwc_io IO021950 9.90000 92.6000 -1 9.90000 92.6000 TC 25 9.98580 92.5875 1 6 330
1950143N08093 1950 25 NI BB NOT_NAMED 1950-05-24 03:00:00 TS 10.1816 92.4250 main 600 600 P________PO___ IO021950 10.1725 92.4375 -1 10.1725 92.4375 TC 25 10.2000 92.4000 1 6 318
1950143N08093 1950 25 NI BB NOT_NAMED 1950-05-24 06:00:00 TS 10.3884 92.1767 main 631 631 O________OP___ jtwc_io IO021950 10.4000 92.2000 -1 10.4000 92.2000 TC 25 10.3652 92.1300 1 7 300
1950143N08093 1950 25 NI BB NOT_NAMED 1950-05-24 09:00:00 TS 10.5135 91.8433 main 656 651 P________PP___ IO021950 10.5226 91.8575 -1 10.5226 91.8575 TC 25 10.4953 91.8150 1 7 288
1950143N08093 1950 25 NI BB NOT_NAMED 1950-05-24 12:00:00 TS 10.6009 91.4975 main 661 661 O________OP___ jtwc_io IO021950 10.6000 91.5000 -1 10.6000 91.5000 TC 25 10.6027 91.4925 1 7 287
1950143N08093 1950 25 NI BB NOT_NAMED 1950-05-24 15:00:00 TS 10.7000 91.2083 main 667 664 P________PO___ IO021950 10.7000 91.2125 -1 10.7000 91.2125 TC 25 10.7000 91.2000 1 5 292
1950143N08093 1950 25 NI BB NOT_NAMED 1950-05-24 18:00:00 TS 10.7914 91.0097 main 669 666 O________OP___ jtwc_io IO021950 10.8000 91.0000 -1 10.8000 91.0000 TC 25 10.7743 91.0292 1 3 301
1950143N08093 1950 25 NI BB NOT_NAMED 1950-05-24 21:00:00 TS 10.8772 90.9055 main 666 663 P________PP___ IO021950 10.8924 90.9149 -1 10.8924 90.9149 TC 25 10.8469 90.8867 1 3 310
1950143N08093 1950 25 NI BB NOT_NAMED 1950-05-25 00:00:00 TS 10.9820 90.7753 main 663 663 O________OP___ jtwc_io IO021950 11.0000 90.8000 -1 11.0000 90.8000 TC 25 10.9461 90.7259 1 5 300
1950143N08093 1950 25 NI BB NOT_NAMED 1950-05-25 03:00:00 TS 11.1083 90.5016 main 674 672 P________PO___ IO021950 11.1125 90.5024 -1 11.1125 90.5024 TC 25 11.1000 90.5000 1 7 297
1950143N08093 1950 25 NI BB NOT_NAMED 1950-05-25 06:00:00 TS 11.3116 90.1130 main 685 684 O________OP___ jtwc_io IO021950 11.3000 90.1000 -1 11.3000 90.1000 TC 25 11.3347 90.1390 1 10 302
1950143N08093 1950 25 NI BB NOT_NAMED 1950-05-25 09:00:00 TS 11.6218 89.6751 main 692 691 P________PP___ IO021950 11.6200 89.6576 -1 11.6200 89.6576 TC 25 11.6254 89.7103 1 11 307
1950143N08093 1950 25 NI BB NOT_NAMED 1950-05-25 12:00:00 TS 11.9845 89.2171 main 701 701 O________OP___ jtwc_io IO021950 12.0000 89.2000 -1 12.0000 89.2000 TC 25 11.9534 89.2514 1 11 309
1950143N08093 1950 25 NI BB NOT_NAMED 1950-05-25 15:00:00 TS 12.3333 88.7899 main 714 708 P________PO___ IO021950 12.3499 88.7849 -1 12.3499 88.7849 TC 25 12.3000 88.8000 1 11 311
1950143N08093 1950 25 NI BB NOT_NAMED 1950-05-25 18:00:00 TS 12.6866 88.4035 main 726 726 O________OP___ jtwc_io IO021950 12.7000 88.4000 -1 12.7000 88.4000 TC 25 12.6597 88.4106 1 10 315
1950143N08093 1950 25 NI BB NOT_NAMED 1950-05-25 21:00:00 TS 13.0531 88.0450 main 716 670 P________PP___ IO021950 13.0649 88.0499 -1 13.0649 88.0499 TC 25 13.0296 88.0351 1 10 315
1950143N08093 1950 25 NI BB NOT_NAMED 1950-05-26 00:00:00 TS 13.3949 87.6890 main 670 618 O________OP___ jtwc_io IO021950 13.4000 87.7000 -1 13.4000 87.7000 TC 25 13.3847 87.6669 1 10 311
1950143N08093 1950 25 NI BB NOT_NAMED 1950-05-26 03:00:00 TS 13.6817 87.3000 main 618 573 P________PO___ IO021950 13.6725 87.2999 -1 13.6725 87.2999 TC 25 13.7000 87.3000 1 9 304
1950143N08093 1950 25 NI BB NOT_NAMED 1950-05-26 06:00:00 TS 13.9144 86.9001 main 573 527 O________OP___ jtwc_io IO021950 13.9000 86.9000 -1 13.9000 86.9000 TC 25 13.9432 86.9003 1 9 300
1950143N08093 1950 25 NI BB NOT_NAMED 1950-05-26 09:00:00 TS 14.1200 86.5298 main 527 489 P________PP___ IO021950 14.1074 86.5424 -1 14.1074 86.5424 TC 25 14.1451 86.5046 1 8 299
1950143N08093 1950 25 NI BB NOT_NAMED 1950-05-26 12:00:00 TS 14.3082 86.1772 main 489 442 O________OP___ jtwc_io IO021950 14.3000 86.2000 -1 14.3000 86.2000 TC 25 14.3245 86.1316 1 8 299
1950143N08093 1950 25 NI BB NOT_NAMED 1950-05-26 15:00:00 TS 14.5000 85.8183 main 442 403 P________PO___ IO021950 14.5000 85.8275 -1 14.5000 85.8275 TC 25 14.5000 85.8000 1 8 301
1950143N08093 1950 25 NI BB NOT_NAMED 1950-05-26 18:00:00 TS 14.6947 85.5091 main 403 373 O________OP___ jtwc_io IO021950 14.7000 85.5000 -1 14.7000 85.5000 TC 25 14.6868 85.5227 1 7 307
1950143N08093 1950 25 NI BB NOT_NAMED 1950-05-26 21:00:00 TS 14.8935 85.2787 main 373 343 P________PP___ IO021950 14.9000 85.2700 -1 14.9000 85.2700 TC 25 14.8849 85.2903 1 6 315
1950143N08093 1950 25 NI BB NOT_NAMED 1950-05-27 00:00:00 TS 15.0953 85.0939 main 343 313 O________OP___ jtwc_io IO021950 15.1000 85.1000 -1 15.1000 85.1000 TC 25 15.0906 85.0878 1 5 318
1950143N08093 1950 25 NI BB NOT_NAMED 1950-05-27 03:00:00 NR 15.3000 84.9000 main 313 __________O___ IO021950 -1 TC 15.3000 84.9000 1 6 318

About IBTrACS Database

This database is a web-friendly format of International Best Track Archive for Climate Stewardship (IBTrACS), a global best track data archive curated by NOAA dating back to 1842.

Updated: 2021-10-25